createdAt,value
2018-09-04T00:00:46.385Z,94.00
2018-09-04T00:03:14.085Z,94.00
2018-09-04T00:05:41.704Z,94.10
2018-09-04T00:08:09.269Z,94.30
2018-09-04T00:10:36.824Z,94.30
2018-09-04T00:13:04.482Z,94.80
2018-09-04T00:15:32.124Z,94.90
2018-09-04T00:17:59.879Z,95.20
2018-09-04T00:20:27.492Z,95.50
2018-09-04T00:22:55.024Z,95.60
2018-09-04T00:25:22.608Z,95.30
2018-09-04T00:27:50.164Z,95.10
2018-09-04T00:30:17.737Z,94.80
2018-09-04T00:32:45.349Z,94.50
2018-09-04T00:35:13.070Z,94.40
2018-09-04T00:37:40.712Z,94.30
2018-09-04T00:40:08.570Z,94.40
2018-09-04T00:42:36.305Z,94.40
2018-09-04T00:45:04.108Z,94.50
2018-09-04T00:47:31.640Z,95.40
2018-09-04T00:49:59.224Z,96.50
2018-09-04T00:52:26.763Z,96.80
2018-09-04T00:54:54.793Z,97.00
2018-09-04T00:57:22.297Z,97.30
2018-09-04T00:59:49.816Z,97.30
2018-09-04T01:02:17.585Z,97.30
2018-09-04T01:04:45.730Z,97.20
2018-09-04T01:07:13.916Z,97.30
2018-09-04T01:09:41.563Z,97.20
2018-09-04T01:12:09.109Z,97.10
2018-09-04T01:14:36.656Z,96.90
2018-09-04T01:17:04.362Z,96.80
2018-09-04T01:19:32.011Z,96.80
2018-09-04T01:21:59.589Z,96.80
2018-09-04T01:24:27.144Z,96.80
2018-09-04T01:26:54.668Z,96.70
2018-09-04T01:29:22.203Z,96.70
2018-09-04T01:31:49.767Z,96.50
2018-09-04T01:34:17.328Z,96.30
2018-09-04T01:36:44.856Z,96.20
2018-09-04T01:39:12.405Z,96.10
2018-09-04T01:41:39.949Z,96.10
2018-09-04T01:44:07.490Z,96.00
2018-09-04T01:46:35.173Z,95.90
2018-09-04T01:49:03.429Z,95.80
2018-09-04T01:51:31.214Z,95.70
2018-09-04T01:53:58.872Z,95.60
2018-09-04T01:56:26.412Z,95.40
2018-09-04T01:58:53.949Z,95.70
2018-09-04T02:01:21.575Z,96.10
2018-09-04T02:03:49.268Z,96.30
2018-09-04T02:06:16.879Z,96.40
2018-09-04T02:08:44.437Z,96.30
2018-09-04T02:11:12.047Z,96.30
2018-09-04T02:13:39.562Z,96.30
2018-09-04T02:16:07.136Z,96.40
2018-09-04T02:18:34.744Z,96.40
2018-09-04T02:21:02.247Z,96.50
2018-09-04T02:23:29.765Z,96.60
2018-09-04T02:25:57.317Z,96.80
2018-09-04T02:28:24.836Z,96.90
2018-09-04T02:30:52.454Z,96.80
2018-09-04T02:33:19.983Z,96.90
2018-09-04T02:35:47.499Z,96.70
2018-09-04T02:38:15.075Z,96.60
2018-09-04T02:40:42.595Z,96.30
2018-09-04T02:43:10.153Z,96.00
2018-09-04T02:45:37.672Z,95.80
2018-09-04T02:48:05.353Z,95.80
2018-09-04T02:50:32.919Z,96.30
2018-09-04T02:53:00.556Z,96.60
2018-09-04T02:55:28.094Z,96.70
2018-09-04T02:57:55.609Z,96.70
2018-09-04T03:00:23.243Z,96.80
2018-09-04T03:02:50.800Z,96.70
2018-09-04T03:05:18.337Z,96.70
2018-09-04T03:07:45.883Z,96.60
2018-09-04T03:10:13.389Z,96.50
2018-09-04T03:12:40.932Z,96.50
2018-09-04T03:15:08.487Z,96.50
2018-09-04T03:17:36.016Z,96.40
2018-09-04T03:20:03.718Z,96.30
2018-09-04T03:22:31.257Z,96.10
2018-09-04T03:24:58.797Z,96.00
2018-09-04T03:27:26.421Z,96.00
2018-09-04T03:29:54.089Z,95.90
2018-09-04T03:32:21.887Z,96.00
2018-09-04T03:34:49.469Z,95.80
2018-09-04T03:37:17.013Z,95.70
2018-09-04T03:39:44.588Z,95.90
2018-09-04T03:42:12.226Z,95.90
2018-09-04T03:44:39.785Z,96.10
2018-09-04T03:47:07.440Z,96.10
2018-09-04T03:49:35.434Z,96.20
2018-09-04T03:52:02.969Z,96.20
2018-09-04T03:54:30.524Z,96.10
2018-09-04T03:56:58.175Z,96.20
2018-09-04T03:59:25.810Z,96.20
2018-09-04T04:01:53.404Z,96.10
2018-09-04T04:04:20.924Z,95.90
2018-09-04T04:06:48.646Z,95.80
2018-09-04T04:09:16.269Z,95.60
2018-09-04T04:11:43.992Z,95.40
2018-09-04T04:14:11.615Z,95.20
2018-09-04T04:16:39.182Z,95.00
2018-09-04T04:19:06.720Z,95.10
2018-09-04T04:21:34.289Z,95.00
2018-09-04T04:24:02.078Z,94.90
2018-09-04T04:26:29.661Z,94.80
2018-09-04T04:28:57.300Z,94.70
2018-09-04T04:31:24.845Z,94.60
2018-09-04T04:33:52.564Z,94.60
2018-09-04T04:36:20.133Z,94.60
2018-09-04T04:38:47.701Z,94.60
2018-09-04T04:41:15.240Z,94.60
2018-09-04T04:43:42.780Z,94.60
2018-09-04T04:46:10.317Z,94.70
2018-09-04T04:48:37.844Z,94.70
2018-09-04T04:51:05.452Z,94.80
2018-09-04T04:53:33.055Z,94.80
2018-09-04T04:56:00.608Z,94.80
2018-09-04T04:58:28.165Z,94.90
2018-09-04T05:00:55.776Z,94.90
2018-09-04T05:03:23.346Z,95.20
2018-09-04T05:05:50.913Z,95.30
2018-09-04T05:08:18.483Z,95.40
2018-09-04T05:10:46.004Z,95.40
2018-09-04T05:13:13.606Z,95.30
2018-09-04T05:15:41.164Z,95.30
2018-09-04T05:18:08.716Z,95.60
2018-09-04T05:20:36.338Z,95.80
2018-09-04T05:23:03.913Z,96.00
2018-09-04T05:25:31.489Z,96.10
2018-09-04T05:27:59.027Z,96.20
2018-09-04T05:30:26.574Z,96.10
2018-09-04T05:32:59.850Z,96.10
2018-09-04T05:35:30.575Z,96.00
2018-09-04T05:37:58.125Z,95.80
2018-09-04T05:40:25.667Z,95.90
2018-09-04T05:42:55.942Z,95.90
2018-09-04T05:45:25.207Z,95.90
2018-09-04T05:48:04.076Z,95.90
2018-09-04T05:50:31.740Z,95.90
2018-09-04T05:52:59.360Z,95.60
2018-09-04T05:55:26.910Z,95.50
2018-09-04T05:57:54.552Z,95.40
2018-09-04T06:00:25.956Z,95.30
2018-09-04T06:02:53.569Z,95.20
2018-09-04T06:05:21.405Z,95.10
2018-09-04T06:07:48.952Z,94.90
2018-09-04T06:10:16.477Z,94.60
2018-09-04T06:12:44.021Z,94.20
2018-09-04T06:15:11.765Z,94.00
2018-09-04T06:17:39.360Z,94.00
2018-09-04T06:20:07.047Z,94.00
2018-09-04T06:22:34.703Z,93.60
2018-09-04T06:25:02.271Z,93.50
2018-09-04T06:27:29.870Z,93.20
2018-09-04T06:29:57.415Z,93.10
2018-09-04T06:32:25.115Z,92.90
2018-09-04T06:34:52.665Z,92.50
2018-09-04T06:37:20.209Z,92.60
2018-09-04T06:39:47.862Z,92.30
2018-09-04T06:42:15.412Z,92.10
2018-09-04T06:44:43.110Z,91.70
2018-09-04T06:47:10.678Z,91.60
2018-09-04T06:49:38.346Z,91.60
2018-09-04T06:52:06.145Z,91.40
2018-09-04T06:54:33.724Z,91.20
2018-09-04T06:57:01.274Z,91.00
2018-09-04T06:59:28.807Z,90.20
2018-09-04T07:01:56.389Z,90.10
2018-09-04T07:04:23.953Z,89.20
2018-09-04T07:06:51.518Z,87.90
2018-09-04T07:09:19.034Z,86.80
2018-09-04T07:11:46.611Z,86.20
2018-09-04T07:14:14.135Z,85.30
2018-09-04T07:16:41.820Z,84.70
2018-09-04T07:19:12.954Z,84.50
2018-09-04T07:21:40.518Z,84.10
2018-09-04T07:24:08.049Z,84.30
2018-09-04T07:26:35.629Z,84.30
2018-09-04T07:29:03.212Z,85.10
2018-09-04T07:31:30.762Z,84.30
2018-09-04T07:33:58.315Z,84.50
2018-09-04T07:36:25.932Z,84.30
2018-09-04T07:38:53.461Z,83.80
2018-09-04T07:41:21.982Z,82.80
2018-09-04T07:43:49.566Z,82.10
2018-09-04T07:46:17.118Z,81.20
2018-09-04T07:48:44.668Z,80.80
2018-09-04T07:51:12.234Z,78.60
2018-09-04T07:53:39.776Z,78.40
2018-09-04T07:56:07.336Z,75.40
2018-09-04T07:58:34.890Z,73.30
2018-09-04T08:01:02.545Z,73.50
2018-09-04T08:03:30.065Z,71.10
2018-09-04T08:05:57.628Z,71.50
2018-09-04T08:08:25.147Z,69.20
2018-09-04T08:10:52.740Z,65.70
2018-09-04T08:13:20.365Z,62.30
2018-09-04T08:15:48.029Z,60.90
2018-09-04T08:18:15.580Z,58.90
2018-09-04T08:20:43.184Z,56.30
2018-09-04T08:23:10.693Z,54.30
2018-09-04T08:25:38.320Z,53.40
2018-09-04T08:28:05.915Z,51.00
2018-09-04T08:30:33.459Z,49.00
2018-09-04T08:33:01.000Z,48.40
2018-09-04T08:35:28.520Z,47.60
2018-09-04T08:37:59.536Z,47.80
2018-09-04T08:40:28.008Z,46.70
2018-09-04T08:42:55.583Z,45.90
2018-09-04T08:45:23.204Z,46.80
2018-09-04T08:47:50.817Z,46.80
2018-09-04T08:50:18.365Z,46.20
2018-09-04T08:52:52.661Z,44.90
2018-09-04T08:55:20.252Z,42.40
2018-09-04T08:57:47.856Z,35.90
2018-09-04T09:00:15.429Z,29.80
2018-09-04T09:02:43.012Z,26.90
2018-09-04T09:05:10.567Z,24.10
2018-09-04T09:07:38.135Z,21.10
2018-09-04T09:10:05.798Z,21.40
2018-09-04T09:12:33.385Z,20.00
2018-09-04T09:15:00.958Z,18.10
2018-09-04T09:17:28.474Z,16.70
2018-09-04T09:19:56.060Z,16.70
2018-09-04T09:22:23.645Z,15.60
2018-09-04T09:24:51.225Z,14.60
2018-09-04T09:27:18.892Z,14.20
2018-09-04T09:29:46.451Z,14.30
2018-09-04T09:32:13.989Z,13.80
2018-09-04T09:34:41.511Z,13.30
2018-09-04T09:37:09.112Z,12.30
2018-09-04T09:39:36.690Z,12.40
2018-09-04T09:42:04.235Z,12.20
2018-09-04T09:44:31.792Z,12.60
2018-09-04T09:47:01.995Z,14.10
2018-09-04T09:49:30.325Z,16.00
2018-09-04T09:51:57.977Z,17.30
2018-09-04T09:54:25.548Z,19.30
2018-09-04T09:56:53.204Z,21.00
2018-09-04T09:59:20.899Z,22.70
2018-09-04T10:01:52.451Z,24.60
2018-09-04T10:04:20.302Z,26.00
2018-09-04T10:06:48.012Z,28.00
2018-09-04T10:09:15.609Z,28.80
2018-09-04T10:11:43.374Z,30.20
2018-09-04T10:14:11.035Z,32.20
2018-09-04T10:16:38.765Z,33.40
2018-09-04T10:19:06.507Z,35.30
2018-09-04T10:21:34.135Z,36.50
2018-09-04T10:24:01.786Z,37.10
2018-09-04T10:26:29.496Z,36.50
2018-09-04T10:28:57.093Z,35.90
2018-09-04T10:31:24.630Z,36.50
2018-09-04T10:33:52.348Z,35.70
2018-09-04T10:36:19.957Z,36.60
2018-09-04T10:38:47.455Z,36.50
2018-09-04T10:41:15.336Z,36.90
2018-09-04T10:43:42.969Z,36.80
2018-09-04T10:46:14.555Z,36.80
2018-09-04T10:48:42.208Z,36.80
2018-09-04T10:51:09.874Z,39.20
2018-09-04T10:53:37.737Z,39.50
2018-09-04T10:56:05.551Z,39.50
2018-09-04T10:58:33.194Z,38.90
2018-09-04T11:01:00.822Z,38.30
2018-09-04T11:03:28.533Z,37.10
2018-09-04T11:05:56.310Z,35.10
2018-09-04T11:08:23.912Z,33.90
2018-09-04T11:10:51.677Z,32.50
2018-09-04T11:13:19.402Z,31.90
2018-09-04T11:15:47.104Z,32.70
2018-09-04T11:18:14.656Z,31.50
2018-09-04T11:20:42.316Z,33.40
2018-09-04T11:23:10.091Z,34.80
2018-09-04T11:25:38.001Z,33.00
2018-09-04T11:28:06.224Z,33.00
2018-09-04T11:30:33.955Z,34.40
2018-09-04T11:33:02.604Z,34.40
2018-09-04T11:35:30.202Z,35.60
2018-09-04T11:37:57.944Z,36.20
2018-09-04T11:40:25.600Z,37.30
2018-09-04T11:42:53.105Z,36.90
2018-09-04T11:45:20.776Z,37.90
2018-09-04T11:47:48.565Z,37.40
2018-09-04T11:50:16.314Z,38.50
2018-09-04T11:52:43.871Z,37.30
2018-09-04T11:55:11.685Z,35.30
2018-09-04T11:57:39.858Z,29.60
2018-09-04T12:00:09.631Z,26.70
2018-09-04T12:02:38.714Z,23.60
2018-09-04T12:05:06.572Z,21.30
2018-09-04T12:07:34.244Z,19.30
2018-09-04T12:10:01.924Z,17.60
2018-09-04T12:12:31.626Z,16.70
2018-09-04T12:14:59.085Z,16.40
2018-09-04T12:17:26.744Z,17.70
2018-09-04T12:21:07.620Z,18.20
2018-09-04T12:23:35.067Z,19.60
2018-09-04T12:26:04.215Z,19.00
2018-09-04T12:28:32.001Z,18.10
2018-09-04T12:31:00.232Z,16.60
2018-09-04T12:33:27.928Z,15.90
2018-09-04T12:35:55.645Z,14.90
2018-09-04T12:38:25.961Z,14.00
2018-09-04T12:40:53.576Z,14.30
2018-09-04T12:43:21.957Z,14.80
2018-09-04T12:45:51.743Z,15.10
2018-09-04T12:48:23.786Z,15.40
2018-09-04T12:50:52.371Z,15.80
2018-09-04T12:53:20.654Z,16.10
2018-09-04T12:55:48.527Z,16.80
2018-09-04T12:58:16.088Z,17.40
2018-09-04T13:00:47.386Z,18.60
2018-09-04T13:03:16.553Z,19.40
2018-09-04T13:05:44.276Z,20.00
2018-09-04T13:08:12.596Z,19.40
2018-09-04T13:10:40.170Z,19.30
2018-09-04T13:13:08.020Z,20.50
2018-09-04T13:15:35.635Z,21.70
2018-09-04T13:18:03.443Z,22.10
2018-09-04T13:20:31.092Z,23.00
2018-09-04T13:22:58.681Z,24.30
2018-09-04T13:25:26.310Z,25.70
2018-09-04T13:27:54.000Z,26.10
2018-09-04T13:30:21.570Z,27.30
2018-09-04T13:32:49.157Z,27.30
2018-09-04T13:35:16.809Z,27.40
2018-09-04T13:37:44.344Z,26.90
2018-09-04T13:40:11.958Z,27.30
2018-09-04T13:42:39.513Z,27.40
2018-09-04T13:45:07.155Z,28.10
2018-09-04T13:47:34.814Z,27.80
2018-09-04T13:50:02.400Z,28.60
2018-09-04T13:52:30.930Z,29.40
2018-09-04T13:54:58.499Z,28.80
2018-09-04T13:57:26.758Z,29.60
2018-09-04T13:59:54.378Z,29.60
2018-09-04T14:02:21.944Z,29.90
2018-09-04T14:04:49.506Z,30.10
2018-09-04T14:07:17.033Z,28.90
2018-09-04T14:09:44.614Z,29.50
2018-09-04T14:12:12.471Z,29.60
2018-09-04T14:14:40.037Z,28.80
2018-09-04T14:17:44.809Z,29.20
2018-09-04T14:20:12.344Z,29.50
2018-09-04T14:22:39.896Z,29.30
2018-09-04T14:25:07.452Z,28.30
2018-09-04T14:27:35.000Z,27.20
2018-09-04T14:30:16.807Z,26.10
2018-09-04T14:32:30.203Z,25.70
2018-09-04T14:34:57.807Z,25.70
2018-09-04T14:37:25.455Z,25.00
2018-09-04T14:39:55.586Z,24.10
2018-09-04T14:42:20.565Z,24.00
2018-09-04T14:44:48.159Z,23.90
2018-09-04T14:47:15.804Z,23.10
2018-09-04T14:49:43.706Z,23.40
2018-09-04T14:52:11.248Z,22.80
2018-09-04T14:54:38.856Z,23.00
2018-09-04T14:57:06.585Z,23.90
2018-09-04T14:59:34.257Z,23.20
2018-09-04T15:02:01.996Z,23.80
2018-09-04T15:04:29.624Z,23.80
2018-09-04T15:06:57.178Z,23.70
2018-09-04T15:09:24.878Z,23.40
2018-09-04T15:11:52.412Z,23.20
2018-09-04T15:14:19.976Z,23.40
2018-09-04T15:16:47.986Z,22.70
2018-09-04T15:19:15.524Z,23.20
2018-09-04T15:21:43.234Z,24.10
2018-09-04T15:24:10.780Z,24.60
2018-09-04T15:26:38.319Z,25.60
2018-09-04T15:29:05.917Z,26.60
2018-09-04T15:31:33.628Z,27.00
2018-09-04T15:34:01.417Z,26.30
2018-09-04T15:36:29.387Z,26.40
2018-09-04T15:38:57.338Z,27.20
2018-09-04T15:41:25.219Z,26.90
2018-09-04T15:43:52.770Z,26.90
2018-09-04T15:46:20.362Z,27.80
2018-09-04T15:48:53.505Z,27.90
2018-09-04T15:51:21.063Z,28.30
2018-09-04T15:53:48.656Z,29.60
2018-09-04T15:56:16.235Z,31.30
2018-09-04T15:58:43.820Z,31.90
2018-09-04T16:01:11.430Z,33.70
2018-09-04T16:03:39.067Z,34.70
2018-09-04T16:06:06.608Z,36.00
2018-09-04T16:08:34.174Z,36.90
2018-09-04T16:11:01.774Z,38.00
2018-09-04T16:13:29.391Z,38.90
2018-09-04T16:15:57.653Z,40.00
2018-09-04T16:18:25.325Z,41.20
2018-09-04T16:20:52.979Z,41.80
2018-09-04T16:23:20.516Z,41.50
2018-09-04T16:25:48.143Z,42.30
2018-09-04T16:28:15.775Z,42.60
2018-09-04T16:30:43.433Z,44.00
2018-09-04T16:33:10.967Z,43.30
2018-09-04T16:35:38.625Z,43.30
2018-09-04T16:38:06.231Z,43.00
2018-09-04T16:40:33.913Z,42.40
2018-09-04T16:43:01.561Z,42.70
2018-09-04T16:45:29.980Z,42.60
2018-09-04T16:47:57.881Z,42.70
2018-09-04T16:50:25.529Z,43.50
2018-09-04T16:52:53.141Z,44.00
2018-09-04T16:55:20.761Z,42.90
2018-09-04T16:57:48.316Z,43.50
2018-09-04T17:00:15.959Z,43.80
2018-09-04T17:02:44.758Z,44.10
2018-09-04T17:05:12.438Z,44.00
2018-09-04T17:07:40.032Z,44.90
2018-09-04T17:10:07.621Z,46.20
2018-09-04T17:12:35.341Z,46.80
2018-09-04T17:15:02.969Z,46.80
2018-09-04T17:17:30.567Z,47.20
2018-09-04T17:19:58.174Z,47.50
2018-09-04T17:22:25.808Z,47.90
2018-09-04T17:24:53.937Z,48.40
2018-09-04T17:27:21.530Z,48.80
2018-09-04T17:29:49.140Z,49.30
2018-09-04T17:32:16.740Z,51.00
2018-09-04T17:34:44.280Z,51.90
2018-09-04T17:37:11.917Z,52.60
2018-09-04T17:39:39.482Z,52.80
2018-09-04T17:42:07.055Z,52.60
2018-09-04T17:44:34.594Z,54.00
2018-09-04T17:47:02.268Z,54.80
2018-09-04T17:49:29.894Z,55.50
2018-09-04T17:51:57.528Z,56.40
2018-09-04T17:54:25.148Z,56.60
2018-09-04T17:56:52.760Z,56.40
2018-09-04T17:59:20.394Z,57.80
2018-09-04T18:01:47.956Z,58.90
2018-09-04T18:04:15.854Z,59.50
2018-09-04T18:06:43.428Z,59.80
2018-09-04T18:09:11.065Z,59.80
2018-09-04T18:11:38.678Z,59.90
2018-09-04T18:14:06.368Z,60.70
2018-09-04T18:16:34.106Z,60.90
2018-09-04T18:19:01.793Z,62.00
2018-09-04T18:21:29.476Z,62.30
2018-09-04T18:23:57.045Z,62.50
2018-09-04T18:26:24.637Z,64.00
2018-09-04T18:28:52.391Z,63.50
2018-09-04T18:31:20.009Z,64.20
2018-09-04T18:33:47.621Z,64.20
2018-09-04T18:36:15.526Z,64.60
2018-09-04T18:38:43.153Z,65.00
2018-09-04T18:41:10.828Z,65.10
2018-09-04T18:43:38.428Z,65.30
2018-09-04T18:46:06.052Z,65.70
2018-09-04T18:51:54.744Z,67.70
2018-09-04T18:54:22.453Z,68.10
2018-09-04T18:56:50.156Z,68.90
2018-09-04T18:59:17.814Z,68.30
2018-09-04T19:01:45.431Z,68.90
2018-09-04T19:04:13.080Z,68.90
2018-09-04T19:06:40.685Z,68.90
2018-09-04T19:09:08.371Z,69.20
2018-09-04T19:11:36.013Z,69.80
2018-09-04T19:14:03.719Z,69.80
2018-09-04T19:16:31.431Z,69.80
2018-09-04T19:18:59.116Z,70.70
2018-09-04T19:21:26.784Z,71.50
2018-09-04T19:23:54.393Z,72.20
2018-09-04T19:26:22.135Z,73.00
2018-09-04T19:28:49.779Z,73.70
2018-09-04T19:31:17.382Z,73.90
2018-09-04T19:33:44.970Z,73.90
2018-09-04T19:36:12.597Z,74.30
2018-09-04T19:38:40.289Z,74.80
2018-09-04T19:41:07.892Z,75.00
2018-09-04T19:43:35.598Z,75.60
2018-09-04T19:46:03.269Z,75.40
2018-09-04T19:48:30.901Z,75.40
2018-09-04T19:50:58.907Z,75.60
2018-09-04T19:53:26.779Z,75.60
2018-09-04T19:55:54.589Z,75.40
2018-09-04T19:58:22.535Z,75.40
2018-09-04T20:00:50.378Z,75.60
2018-09-04T20:03:17.965Z,75.90
2018-09-04T20:05:45.668Z,76.30
2018-09-04T20:08:13.313Z,76.50
2018-09-04T20:10:40.989Z,77.10
2018-09-04T20:13:08.629Z,77.60
2018-09-04T20:15:36.238Z,78.20
2018-09-04T20:18:03.792Z,78.20
2018-09-04T20:20:31.397Z,78.40
2018-09-04T20:22:59.026Z,79.10
2018-09-04T20:25:26.618Z,79.70
2018-09-04T20:27:54.228Z,79.90
2018-09-04T20:30:21.879Z,80.20
2018-09-04T20:32:49.434Z,80.60
2018-09-04T20:35:17.064Z,81.20
2018-09-04T20:37:44.697Z,81.40
2018-09-04T20:40:12.302Z,81.50
2018-09-04T20:42:39.919Z,82.80
2018-09-04T20:45:07.594Z,83.20
2018-09-04T20:47:35.211Z,82.80
2018-09-04T20:50:02.851Z,82.80
2018-09-04T20:52:30.400Z,83.00
2018-09-04T20:54:58.458Z,83.20
2018-09-04T20:57:26.488Z,83.40
2018-09-04T21:00:06.485Z,83.40
2018-09-04T21:02:45.498Z,83.60
2018-09-04T21:05:24.882Z,83.60
2018-09-04T21:09:02.285Z,83.80
2018-09-04T21:11:30.205Z,83.20
2018-09-04T21:13:57.830Z,83.00
2018-09-04T21:16:25.472Z,83.20
2018-09-04T21:18:53.110Z,83.80
2018-09-04T21:21:20.850Z,84.00
2018-09-04T21:23:48.598Z,84.00
2018-09-04T21:26:16.195Z,83.80
2018-09-04T21:28:43.890Z,83.60
2018-09-04T21:31:11.477Z,83.80
2018-09-04T21:33:39.050Z,84.10
2018-09-04T21:36:06.678Z,84.30
2018-09-04T21:38:34.365Z,84.30
2018-09-04T21:41:01.968Z,84.50
2018-09-04T21:43:29.517Z,84.70
2018-09-04T21:45:57.124Z,84.70
2018-09-04T21:48:24.654Z,84.70
2018-09-04T21:50:53.010Z,84.70
2018-09-04T21:53:20.595Z,84.70
2018-09-04T21:55:48.223Z,84.50
2018-09-04T21:58:15.827Z,84.90
2018-09-04T22:00:43.520Z,84.90
2018-09-04T22:03:11.125Z,85.10
2018-09-04T22:05:39.613Z,85.30
2018-09-04T22:08:07.250Z,85.30
2018-09-04T22:10:34.935Z,85.60
2018-09-04T22:13:02.557Z,85.60
2018-09-04T22:15:30.160Z,86.00
2018-09-04T22:17:57.681Z,86.40
2018-09-04T22:20:25.275Z,86.90
2018-09-04T22:22:52.846Z,86.90
2018-09-04T22:25:20.447Z,86.90
2018-09-04T22:27:47.997Z,86.90
2018-09-04T22:30:16.159Z,87.30
2018-09-04T22:32:43.737Z,87.50
2018-09-04T22:35:11.760Z,87.70
2018-09-04T22:37:39.561Z,88.10
2018-09-04T22:40:07.192Z,88.60
2018-09-04T22:42:34.757Z,89.60
2018-09-04T22:45:02.312Z,89.40
2018-09-04T22:47:29.894Z,89.40
2018-09-04T22:50:03.088Z,89.70
2018-09-04T22:52:31.499Z,89.90
2018-09-04T22:55:01.185Z,90.20
2018-09-04T22:57:29.165Z,90.30
2018-09-04T22:59:56.813Z,90.50
2018-09-04T23:02:24.460Z,90.60
2018-09-04T23:04:52.012Z,90.80
2018-09-04T23:07:19.611Z,91.60
2018-09-04T23:09:47.406Z,92.00
2018-09-04T23:12:15.471Z,92.00
2018-09-04T23:14:43.356Z,91.70
2018-09-04T23:17:10.922Z,91.70
2018-09-04T23:19:38.529Z,91.50
2018-09-04T23:22:06.135Z,91.30
2018-09-04T23:24:33.737Z,91.30
2018-09-04T23:27:01.334Z,91.30
2018-09-04T23:29:28.883Z,91.40
2018-09-04T23:31:56.416Z,91.20
2018-09-04T23:34:23.954Z,91.10
2018-09-04T23:36:51.534Z,90.90
2018-09-04T23:39:19.300Z,90.90
2018-09-04T23:41:46.987Z,91.20
2018-09-04T23:44:14.544Z,91.30
2018-09-04T23:46:42.113Z,91.60
2018-09-04T23:49:09.667Z,91.70
2018-09-04T23:51:37.233Z,91.90
2018-09-04T23:54:04.783Z,92.30
2018-09-04T23:56:32.325Z,92.60
2018-09-04T23:58:59.868Z,92.60
